Time;durP1;ratioP1;P1;durP2;ratioP2;P2;SDS_P1;SDS_P2;PMS_P1;PMS_P2;Temp;Humidity;BMP_temperature;BMP_pressure;BME280_temperature;BME280_humidity;BME280_pressure;Samples;Min_cycle;Max_cycle;Signal;HPM_P1;HPM_P2
2022/06/26 00:01:34;;;;;;;2.75;1.25;;;;;;;18.00;100.00;96319.50;5032894;28;20048;-73
2022/06/26 00:04:00;;;;;;;3.25;1.30;;;;;;;17.99;100.00;96320.59;5035144;28;20515;-73
2022/06/26 00:06:26;;;;;;;2.45;1.20;;;;;;;18.02;100.00;96314.56;5033257;28;20036;-72
2022/06/26 00:08:51;;;;;;;5.50;1.20;;;;;;;18.00;100.00;96318.69;5033591;28;20025;-72
2022/06/26 00:11:17;;;;;;;8.27;1.95;;;;;;;18.02;100.00;96311.88;5032300;28;20152;-73
2022/06/26 00:13:42;;;;;;;2.75;1.38;;;;;;;17.94;100.00;96312.56;5035544;28;20156;-74
2022/06/26 00:16:08;;;;;;;6.90;1.65;;;;;;;17.93;100.00;96310.97;5031579;28;20053;-73
2022/06/26 00:18:34;;;;;;;4.50;1.40;;;;;;;17.91;100.00;96315.06;5033187;28;20311;-74
2022/06/26 00:21:00;;;;;;;11.07;1.48;;;;;;;17.81;100.00;96305.22;5032335;28;20041;-73
2022/06/26 00:23:25;;;;;;;6.90;1.30;;;;;;;17.77;100.00;96320.47;5032263;28;20040;-73
2022/06/26 00:25:51;;;;;;;2.90;1.23;;;;;;;17.82;100.00;96320.38;5033865;28;20069;-73
2022/06/26 00:28:16;;;;;;;2.55;1.27;;;;;;;17.85;100.00;96325.19;5031679;28;20457;-74
2022/06/26 00:30:42;;;;;;;3.17;1.23;;;;;;;17.86;100.00;96325.97;5033501;28;20048;-73
2022/06/26 00:33:07;;;;;;;3.33;1.40;;;;;;;17.84;100.00;96320.06;5034022;28;20048;-73
2022/06/26 00:35:33;;;;;;;3.75;1.33;;;;;;;17.78;100.00;96322.06;5033959;28;20163;-73
2022/06/26 00:37:59;;;;;;;4.32;1.48;;;;;;;17.79;100.00;96307.41;5032904;28;20122;-74
2022/06/26 00:40:24;;;;;;;9.13;1.50;;;;;;;17.85;100.00;96317.06;5032172;28;20033;-74
2022/06/26 00:42:50;;;;;;;2.30;1.20;;;;;;;17.74;100.00;96316.44;5036221;28;20463;-73
2022/06/26 00:45:15;;;;;;;2.90;1.40;;;;;;;17.61;100.00;96316.38;5046244;28;20052;-74
2022/06/26 00:47:41;;;;;;;6.28;1.33;;;;;;;17.52;100.00;96308.94;5050602;28;20044;-73
2022/06/26 00:50:08;;;;;;;3.78;1.20;;;;;;;17.48;100.00;96302.50;5029328;28;20041;-73
2022/06/26 00:52:35;;;;;;;2.53;1.27;;;;;;;17.47;100.00;96309.00;5033612;28;20041;-74
2022/06/26 00:55:03;;;;;;;4.38;1.20;;;;;;;17.31;100.00;96313.06;5033170;28;20030;-74
2022/06/26 00:57:29;;;;;;;3.50;1.48;;;;;;;17.23;100.00;96311.84;5033117;28;20564;-73
2022/06/26 00:59:56;;;;;;;3.28;1.20;;;;;;;17.23;100.00;96313.72;5034348;28;20091;-73
2022/06/26 01:02:21;;;;;;;4.93;1.60;;;;;;;17.19;100.00;96315.41;5050004;28;20084;-73
2022/06/26 01:04:47;;;;;;;3.95;1.33;;;;;;;17.16;100.00;96314.09;5031408;28;20444;-72
2022/06/26 01:07:14;;;;;;;3.35;1.40;;;;;;;17.07;100.00;96313.16;5030563;28;20050;-72
2022/06/26 01:09:41;;;;;;;3.05;1.50;;;;;;;16.94;100.00;96319.28;5030415;28;20256;-73
2022/06/26 01:12:07;;;;;;;2.85;1.45;;;;;;;16.91;100.00;96315.28;5033332;28;20044;-73
2022/06/26 01:14:33;;;;;;;2.65;1.30;;;;;;;16.84;100.00;96322.94;5047396;28;20248;-73
2022/06/26 01:17:00;;;;;;;2.70;1.35;;;;;;;16.76;100.00;96325.50;5030831;28;20045;-73
2022/06/26 01:19:26;;;;;;;2.97;1.50;;;;;;;16.64;100.00;96320.47;5034128;28;20046;-73
2022/06/26 01:21:52;;;;;;;3.20;1.40;;;;;;;16.58;100.00;96319.75;5034647;28;20412;-74
2022/06/26 01:24:17;;;;;;;3.60;1.50;;;;;;;16.52;100.00;96322.81;5031774;28;20037;-73
2022/06/26 01:26:44;;;;;;;2.50;1.15;;;;;;;16.44;100.00;96311.56;5037523;28;20381;-74
2022/06/26 01:29:09;;;;;;;3.40;1.48;;;;;;;16.39;100.00;96311.59;5046680;28;20080;-72
2022/06/26 01:31:36;;;;;;;4.10;1.70;;;;;;;16.31;100.00;96311.44;5047151;28;20061;-73
2022/06/26 01:34:04;;;;;;;3.20;1.55;;;;;;;16.26;100.00;96320.41;5027260;28;20380;-73
2022/06/26 01:36:29;;;;;;;3.42;1.70;;;;;;;16.23;100.00;96310.19;5035272;28;20366;-74
2022/06/26 01:38:56;;;;;;;4.55;1.85;;;;;;;16.24;100.00;96308.28;5031704;28;20041;-74
2022/06/26 01:41:22;;;;;;;3.38;1.60;;;;;;;16.24;100.00;96308.28;5054337;28;20041;-73
2022/06/26 01:43:49;;;;;;;3.90;1.80;;;;;;;16.24;100.00;96300.19;5039179;28;20175;-72
2022/06/26 01:46:16;;;;;;;3.17;1.88;;;;;;;16.25;100.00;96301.78;5049457;28;20493;-73
2022/06/26 01:48:42;;;;;;;4.65;1.77;;;;;;;16.25;100.00;96305.28;5051255;28;20458;-73
2022/06/26 01:51:09;;;;;;;4.13;1.80;;;;;;;16.35;100.00;96293.59;5051741;28;20037;-72
2022/06/26 01:53:37;;;;;;;3.40;1.70;;;;;;;16.48;100.00;96294.75;5037469;28;20049;-73
2022/06/26 01:56:03;;;;;;;2.95;1.73;;;;;;;16.50;100.00;96293.41;5035312;28;20041;-74
2022/06/26 01:58:36;;;;;;;6.70;1.75;;;;;;;16.65;100.00;96295.91;5032144;28;20041;-73
2022/06/26 02:01:05;;;;;;;3.53;1.67;;;;;;;16.69;100.00;96290.72;5037973;28;20284;-73
2022/06/26 02:03:30;;;;;;;3.60;1.88;;;;;;;16.76;100.00;96299.28;5038700;28;20029;-73
2022/06/26 02:05:56;;;;;;;3.13;1.80;;;;;;;16.90;100.00;96310.97;5037671;28;20318;-73
2022/06/26 02:08:21;;;;;;;3.67;1.80;;;;;;;17.01;100.00;96308.13;5032294;28;20116;-73
2022/06/26 02:13:36;;;;;;;5.30;1.60;;;;;;;17.17;100.00;96304.09;5038722;28;20072;-73
2022/06/26 02:16:09;;;;;;;3.75;1.88;;;;;;;17.12;100.00;96304.16;5037126;28;20492;-73
2022/06/26 02:18:35;;;;;;;3.28;1.75;;;;;;;17.08;100.00;96295.84;5037012;28;20056;-73
2022/06/26 02:21:05;;;;;;;4.53;2.20;;;;;;;17.11;100.00;96283.63;5034856;28;20143;-73
2022/06/26 02:23:30;;;;;;;3.22;1.55;;;;;;;17.19;100.00;96289.16;5037346;28;20515;-72
2022/06/26 02:25:56;;;;;;;5.57;2.10;;;;;;;17.22;100.00;96287.81;5033086;28;20299;-73
2022/06/26 02:28:23;;;;;;;5.13;1.90;;;;;;;17.18;100.00;96286.78;5034141;28;20543;-73
2022/06/26 02:30:50;;;;;;;3.97;1.83;;;;;;;17.10;100.00;96285.53;5047207;28;20041;-73
2022/06/26 02:33:15;;;;;;;3.83;1.70;;;;;;;16.96;100.00;96282.78;5033256;28;20075;-73
2022/06/26 02:35:41;;;;;;;4.40;1.60;;;;;;;16.86;100.00;96285.63;5034056;28;20037;-74
2022/06/26 02:38:07;;;;;;;3.80;1.90;;;;;;;16.70;100.00;96303.16;5034845;28;20648;-74
2022/06/26 02:40:37;;;;;;;3.42;1.80;;;;;;;16.59;100.00;96304.34;5032890;28;20112;-74
2022/06/26 02:43:03;;;;;;;8.00;2.20;;;;;;;16.58;100.00;96310.84;5035370;28;20044;-73
2022/06/26 02:45:31;;;;;;;4.53;1.77;;;;;;;16.61;100.00;96305.66;5038940;28;20128;-73
2022/06/26 02:47:58;;;;;;;8.70;2.00;;;;;;;16.69;100.00;96312.34;5049501;28;20764;-73
2022/06/26 02:50:24;;;;;;;4.68;1.60;;;;;;;16.67;100.00;96303.72;5036171;28;20391;-73
2022/06/26 02:52:49;;;;;;;3.80;1.88;;;;;;;16.79;100.00;96308.69;5035051;28;20527;-74
2022/06/26 02:55:15;;;;;;;3.67;1.48;;;;;;;16.83;100.00;96312.44;5032479;28;20317;-73
2022/06/26 02:57:42;;;;;;;3.80;2.00;;;;;;;16.82;100.00;96321.63;5038731;28;20041;-72
2022/06/26 03:00:10;;;;;;;3.15;1.50;;;;;;;16.82;100.00;96316.25;5036787;28;20407;-73
2022/06/26 03:02:40;;;;;;;2.80;1.30;;;;;;;16.80;100.00;96316.50;5049764;28;20147;-73
2022/06/26 03:05:09;;;;;;;3.38;1.40;;;;;;;16.82;100.00;96308.94;5049322;28;20122;-73
2022/06/26 03:07:34;;;;;;;6.10;1.45;;;;;;;16.84;100.00;96317.53;5034395;28;20044;-73
2022/06/26 03:10:01;;;;;;;2.70;1.38;;;;;;;16.83;100.00;96307.03;5049137;28;20045;-74
2022/06/26 03:12:26;;;;;;;4.55;1.70;;;;;;;16.79;100.00;96300.59;5033915;28;20098;-73
2022/06/26 03:14:52;;;;;;;2.90;1.35;;;;;;;16.85;100.00;96313.75;5034500;28;20097;-74
2022/06/26 03:17:19;;;;;;;2.72;1.45;;;;;;;16.92;100.00;96311.47;5046979;28;20045;-74
2022/06/26 03:19:46;;;;;;;5.03;1.55;;;;;;;16.99;100.00;96311.94;5046911;28;20419;-74
2022/06/26 03:22:11;;;;;;;5.13;1.63;;;;;;;17.03;100.00;96306.72;5047883;28;20244;-73
2022/06/26 03:24:37;;;;;;;2.70;1.45;;;;;;;17.02;100.00;96321.34;5052519;28;20050;-73
2022/06/26 03:27:05;;;;;;;4.25;1.42;;;;;;;17.02;100.00;96317.84;5031436;28;20164;-74
2022/06/26 03:29:31;;;;;;;4.20;1.50;;;;;;;16.99;100.00;96316.53;5032545;28;20106;-74
2022/06/26 03:31:57;;;;;;;2.65;1.38;;;;;;;16.94;100.00;96330.09;5036648;28;20515;-73
2022/06/26 03:34:23;;;;;;;2.90;1.35;;;;;;;16.91;100.00;96318.00;5032596;28;21200;-73
2022/06/26 03:36:48;;;;;;;4.43;1.30;;;;;;;16.91;100.00;96319.88;5020008;28;20391;-73
2022/06/26 03:39:15;;;;;;;3.53;1.50;;;;;;;16.91;100.00;96320.69;5030499;28;20056;-73
2022/06/26 03:41:40;;;;;;;6.80;1.52;;;;;;;16.77;100.00;96327.91;5033182;28;20037;-74
2022/06/26 03:44:07;;;;;;;2.67;1.45;;;;;;;16.75;100.00;96335.50;5035684;28;20445;-74
2022/06/26 03:46:33;;;;;;;2.63;1.42;;;;;;;16.63;100.00;96352.09;5032740;28;20116;-73
2022/06/26 03:49:02;;;;;;;5.13;1.25;;;;;;;16.62;100.00;96349.69;5033262;28;20048;-74
2022/06/26 03:51:28;;;;;;;2.60;1.25;;;;;;;16.64;100.00;96352.91;5031658;28;20418;-73
2022/06/26 03:53:53;;;;;;;2.70;1.13;;;;;;;16.61;100.00;96357.00;5034694;28;20040;-73
2022/06/26 03:56:19;;;;;;;4.45;1.20;;;;;;;16.55;100.00;96351.94;5050734;28;20041;-74
2022/06/26 03:58:45;;;;;;;3.25;1.25;;;;;;;16.50;100.00;96354.69;5047158;28;20486;-74
2022/06/26 04:01:13;;;;;;;4.45;1.10;;;;;;;16.54;100.00;96358.44;5029388;28;20041;-73
2022/06/26 04:03:41;;;;;;;6.13;1.42;;;;;;;16.57;100.00;96355.13;5047358;28;20491;-74
2022/06/26 04:06:06;;;;;;;3.05;1.25;;;;;;;16.58;100.00;96372.97;5035313;28;20037;-73
2022/06/26 04:08:36;;;;;;;6.10;1.45;;;;;;;16.54;100.00;96372.72;5035600;28;20079;-73
2022/06/26 04:11:04;;;;;;;3.45;1.10;;;;;;;16.54;100.00;96375.44;5031919;28;20045;-74
2022/06/26 04:13:34;;;;;;;2.65;1.20;;;;;;;16.52;100.00;96382.22;5030076;28;20440;-73
2022/06/26 04:16:00;;;;;;;3.60;1.02;;;;;;;16.49;100.00;96380.88;5031870;28;20498;-73
2022/06/26 04:18:27;;;;;;;2.53;1.20;;;;;;;16.44;100.00;96389.88;5048695;28;20033;-73
2022/06/26 04:20:54;;;;;;;6.03;1.10;;;;;;;16.41;100.00;96390.44;5035670;28;20534;-73
2022/06/26 04:23:19;;;;;;;2.90;1.15;;;;;;;16.45;100.00;96385.28;5031238;28;20124;-73
2022/06/26 04:25:47;;;;;;;3.50;1.17;;;;;;;16.52;100.00;96382.22;5037153;28;20499;-74
2022/06/26 04:28:12;;;;;;;6.13;1.90;;;;;;;16.59;100.00;96386.19;5031671;28;20082;-74
2022/06/26 04:30:41;;;;;;;7.30;2.00;;;;;;;16.68;100.00;96387.16;5031955;28;20048;-74
2022/06/26 04:33:08;;;;;;;7.45;3.65;;;;;;;16.78;100.00;96390.84;5051256;28;20083;-73
2022/06/26 04:35:35;;;;;;;8.25;2.80;;;;;;;16.87;100.00;96392.63;5013027;28;20059;-73
2022/06/26 04:38:02;;;;;;;5.35;1.90;;;;;;;16.92;100.00;96399.88;5047075;28;20038;-74
2022/06/26 04:40:29;;;;;;;3.28;1.50;;;;;;;16.94;100.00;96397.66;5036665;28;20119;-73
2022/06/26 04:42:55;;;;;;;6.40;1.38;;;;;;;16.89;100.00;96393.16;5018024;28;20095;-73
2022/06/26 04:45:22;;;;;;;3.88;1.20;;;;;;;16.97;100.00;96397.91;5031130;28;20033;-72
2022/06/26 04:47:49;;;;;;;2.65;1.35;;;;;;;17.04;100.00;96410.25;5036164;28;20613;-73
2022/06/26 04:50:16;;;;;;;2.78;1.20;;;;;;;17.05;100.00;96401.88;5028074;28;20495;-73
2022/06/26 04:52:46;;;;;;;4.80;1.35;;;;;;;17.04;100.00;96402.13;5048263;28;20048;-73
2022/06/26 04:55:12;;;;;;;3.67;1.15;;;;;;;17.09;100.00;96400.16;5030855;28;20044;-72
2022/06/26 04:57:41;;;;;;;4.35;1.20;;;;;;;17.17;100.00;96414.94;5020406;28;20143;-73
2022/06/26 05:00:10;;;;;;;5.30;1.27;;;;;;;17.23;100.00;96408.38;5029680;28;20045;-74
2022/06/26 05:02:40;;;;;;;2.80;1.10;;;;;;;17.29;100.00;96406.41;5031485;28;20052;-73
2022/06/26 05:05:24;;;;;;;5.07;1.35;;;;;;;17.40;100.00;96408.66;5030863;28;20075;-73
2022/06/26 05:07:55;;;;;;;4.93;1.73;;;;;;;17.48;100.00;96409.91;5033206;28;20377;-73
2022/06/26 05:10:21;;;;;;;6.90;2.40;;;;;;;17.51;100.00;96404.72;5046847;28;20087;-73
2022/06/26 05:12:53;;;;;;;7.80;2.75;;;;;;;17.56;100.00;96409.22;5048493;28;20029;-73
2022/06/26 05:15:31;;;;;;;8.38;4.88;;;;;;;17.56;100.00;96409.22;5036428;28;20123;-74
2022/06/26 05:17:57;;;;;;;7.40;3.40;;;;;;;17.54;100.00;96409.53;5038164;28;20543;-73
2022/06/26 05:20:22;;;;;;;6.88;4.03;;;;;;;17.57;100.00;96412.75;5039442;28;20045;-73
2022/06/26 05:22:48;;;;;;;8.30;4.53;;;;;;;17.58;100.00;96396.22;5035210;28;20288;-73
2022/06/26 05:25:15;;;;;;;5.30;2.60;;;;;;;17.61;100.00;96398.34;5037749;28;20044;-73
2022/06/26 05:27:43;;;;;;;4.13;2.10;;;;;;;17.67;100.00;96399.88;5035771;28;20110;-73
2022/06/26 05:30:11;;;;;;;5.57;1.80;;;;;;;17.59;100.00;96389.72;5037011;28;20052;-74
2022/06/26 05:32:39;;;;;;;4.72;1.42;;;;;;;17.41;100.00;96393.22;5035295;28;20044;-73
2022/06/26 05:35:09;;;;;;;4.70;1.33;;;;;;;17.23;100.00;96386.75;5039243;28;20102;-73
2022/06/26 05:37:34;;;;;;;3.70;1.35;;;;;;;16.83;100.00;96386.19;5036871;28;20033;-73
2022/06/26 05:40:01;;;;;;;3.92;1.50;;;;;;;16.93;100.00;96383.34;5036934;28;20537;-73
2022/06/26 05:42:30;;;;;;;4.00;1.40;;;;;;;17.06;100.00;96391.84;5040593;28;20060;-73
2022/06/26 05:44:57;;;;;;;2.97;1.20;;;;;;;17.22;100.00;96390.53;5040657;28;20459;-75
2022/06/26 05:47:23;;;;;;;2.75;1.45;;;;;;;17.33;100.00;96380.38;5040194;28;20630;-73
2022/06/26 05:50:07;;;;;;;4.15;1.80;;;;;;;17.49;100.00;96377.13;5034903;28;20037;-74
2022/06/26 05:52:55;;;;;;;2.95;1.38;;;;;;;17.63;100.00;96382.59;5037917;28;20041;-74
2022/06/26 05:55:40;;;;;;;3.55;1.40;;;;;;;17.82;100.00;96382.63;5036528;28;20053;-72
2022/06/26 05:58:24;;;;;;;2.72;1.40;;;;;;;18.17;100.00;96394.72;5038523;28;20082;-72
2022/06/26 06:01:11;;;;;;;2.63;1.35;;;;;;;18.43;100.00;96402.38;5055326;28;20100;-72
2022/06/26 06:03:37;;;;;;;3.45;1.70;;;;;;;18.44;100.00;96406.69;5035718;28;20046;-72
2022/06/26 06:06:02;;;;;;;4.15;1.83;;;;;;;18.29;100.00;96418.63;5053110;28;20041;-72
2022/06/26 06:08:28;;;;;;;3.25;1.50;;;;;;;18.24;100.00;96435.75;5015086;28;20047;-72
2022/06/26 06:10:54;;;;;;;4.15;1.35;;;;;;;18.12;100.00;96438.13;5035182;28;20410;-72
2022/06/26 06:13:19;;;;;;;4.00;1.52;;;;;;;17.98;100.00;96434.59;5036968;28;20037;-72
2022/06/26 06:15:46;;;;;;;3.38;1.60;;;;;;;18.08;100.00;96443.34;5038755;28;20404;-71
2022/06/26 06:18:12;;;;;;;5.10;1.60;;;;;;;18.32;100.00;96445.09;5053757;28;20372;-73
2022/06/26 06:20:38;;;;;;;3.85;1.67;;;;;;;18.53;100.00;96451.78;5040200;28;20037;-71
2022/06/26 06:23:06;;;;;;;4.60;2.00;;;;;;;18.64;100.00;96458.59;5033340;28;20056;-73
2022/06/26 06:25:34;;;;;;;7.53;1.90;;;;;;;18.54;100.00;96460.69;5051985;28;20037;-72
2022/06/26 06:28:03;;;;;;;3.58;1.73;;;;;;;18.44;100.00;96464.38;5039750;28;20041;-73
2022/06/26 06:30:32;;;;;;;5.00;1.95;;;;;;;18.32;100.00;96456.75;5035294;28;20377;-72
2022/06/26 06:32:58;;;;;;;4.10;2.13;;;;;;;18.34;100.00;96473.50;5037139;28;20051;-73
2022/06/26 06:35:44;;;;;;;5.20;2.03;;;;;;;18.45;100.00;96466.00;5056443;28;20726;-74
2022/06/26 06:38:18;;;;;;;3.80;2.06;;;;;;;18.55;100.00;96476.66;4963134;28;10001208;-73
2022/06/26 06:40:51;;;;;;;4.43;2.08;;;;;;;18.67;100.00;96478.09;5036879;28;20254;-73
2022/06/26 06:43:22;;;;;;;4.10;2.00;;;;;;;18.76;100.00;96473.59;5038424;28;20033;-74
2022/06/26 06:46:17;;;;;;;6.28;2.13;;;;;;;18.80;100.00;96483.53;4983184;28;20108;-73
2022/06/26 06:48:54;;;;;;;3.30;2.10;;;;;;;18.80;100.00;96493.56;5033813;28;20037;-73
2022/06/26 06:51:40;;;;;;;5.15;1.98;;;;;;;18.99;100.00;96491.59;5035365;28;20480;-74
2022/06/26 06:54:06;;;;;;;4.07;2.17;;;;;;;19.04;100.00;96499.59;5032689;28;20045;-73
2022/06/26 06:56:32;;;;;;;6.85;2.30;;;;;;;19.05;100.00;96509.34;5034637;28;20036;-73
2022/06/26 06:59:00;;;;;;;5.80;2.30;;;;;;;19.06;100.00;96508.22;5050227;28;20455;-73
2022/06/26 07:01:26;;;;;;;4.57;2.00;;;;;;;18.85;100.00;96507.84;5052352;28;20056;-73
2022/06/26 07:03:51;;;;;;;8.68;2.50;;;;;;;18.73;100.00;96509.44;5037668;28;20049;-73
2022/06/26 07:06:17;;;;;;;4.30;2.28;;;;;;;18.90;100.00;96509.63;5034933;28;20160;-72
2022/06/26 07:08:42;;;;;;;6.57;2.40;;;;;;;19.24;100.00;96508.47;5049776;28;20358;-74
2022/06/26 07:11:08;;;;;;;6.00;2.13;;;;;;;19.72;100.00;96522.38;5030268;28;20044;-73
2022/06/26 07:13:33;;;;;;;4.38;2.60;;;;;;;19.97;100.00;96515.56;5030818;28;20045;-73
2022/06/26 07:15:59;;;;;;;3.38;2.17;;;;;;;20.38;100.00;96517.31;5030771;28;20057;-73
2022/06/26 07:18:28;;;;;;;6.65;2.60;;;;;;;20.58;100.00;96504.03;5036309;28;20106;-73
2022/06/26 07:20:54;;;;;;;6.00;2.58;;;;;;;20.73;100.00;96515.63;5029731;28;20049;-74
2022/06/26 07:23:21;;;;;;;5.68;2.33;;;;;;;20.75;100.00;96506.03;5047285;28;20163;-73
2022/06/26 07:25:56;;;;;;;3.58;2.20;;;;;;;20.68;100.00;96507.59;5047342;28;20064;-74
2022/06/26 07:28:28;;;;;;;6.13;2.97;;;;;;;20.54;100.00;96510.41;5047477;28;20624;-74
2022/06/26 07:30:54;;;;;;;6.65;2.65;;;;;;;20.48;100.00;96508.94;5036441;28;20053;-72
2022/06/26 07:36:04;;;;;;;4.20;2.60;;;;;;;20.31;100.00;96528.59;5050696;28;20120;-73
2022/06/26 07:38:30;;;;;;;4.00;2.45;;;;;;;20.28;100.00;96521.88;5048236;28;20043;-74
2022/06/26 07:40:56;;;;;;;3.95;2.70;;;;;;;20.33;100.00;96537.25;5033476;28;20047;-73
2022/06/26 07:43:22;;;;;;;6.85;2.55;;;;;;;20.31;100.00;96543.00;5051100;28;20046;-74
2022/06/26 07:45:48;;;;;;;4.55;2.75;;;;;;;20.08;100.00;96538.69;5038954;28;20565;-73
2022/06/26 07:48:14;;;;;;;7.05;2.65;;;;;;;20.13;100.00;96538.53;5012212;28;21008;-73
2022/06/26 07:50:40;;;;;;;6.65;3.10;;;;;;;19.89;100.00;96544.25;5049225;28;20191;-73
2022/06/26 07:53:06;;;;;;;5.03;2.97;;;;;;;20.19;100.00;96545.47;5036685;28;20042;-74
2022/06/26 07:55:31;;;;;;;5.15;2.80;;;;;;;20.58;100.00;96546.72;5033360;28;20041;-74
2022/06/26 07:57:57;;;;;;;5.13;3.30;;;;;;;20.72;100.00;96541.22;5033282;28;20029;-73
2022/06/26 08:00:22;;;;;;;3.90;2.88;;;;;;;20.83;100.00;96537.91;5033668;28;20033;-73
2022/06/26 08:02:48;;;;;;;4.25;2.53;;;;;;;20.79;100.00;96550.53;5036300;28;20033;-74
2022/06/26 08:05:13;;;;;;;4.90;3.38;;;;;;;;;;5038757;28;20077;-73
2022/06/26 08:07:38;;;;;;;7.10;4.90;;;;;;;20.94;100.00;96538.47;5035620;28;20506;-73
2022/06/26 08:10:05;;;;;;;6.35;4.57;;;;;;;21.10;100.00;96541.56;5035445;28;20110;-73
2022/06/26 08:12:30;;;;;;;8.82;4.30;;;;;;;21.13;100.00;96544.47;5032352;28;20510;-72
2022/06/26 08:14:56;;;;;;;7.18;4.15;;;;;;;21.61;100.00;96540.16;5029582;28;20041;-73
2022/06/26 08:17:21;;;;;;;7.18;4.20;;;;;;;21.62;100.00;96541.75;5033918;28;20583;-72
2022/06/26 08:19:48;;;;;;;7.05;4.50;;;;;;;21.35;100.00;96540.88;5034902;28;20110;-73
2022/06/26 08:22:14;;;;;;;6.63;4.43;;;;;;;21.36;100.00;96541.69;4666325;28;9999961;-73
2022/06/26 08:24:41;;;;;;;7.32;4.82;;;;;;;21.32;100.00;96536.09;5034768;28;20254;-74
2022/06/26 08:27:08;;;;;;;6.60;4.40;;;;;;;21.19;100.00;96536.16;5050954;28;20128;-74
2022/06/26 08:29:33;;;;;;;9.60;4.95;;;;;;;21.32;100.00;96529.81;5033896;28;20460;-74
2022/06/26 08:31:59;;;;;;;7.65;4.85;;;;;;;21.28;100.00;96518.78;5036608;28;20144;-74
2022/06/26 08:34:24;;;;;;;7.22;4.80;;;;;;;21.35;100.00;96513.69;5033350;28;21250;-74
2022/06/26 08:36:51;;;;;;;8.05;4.70;;;;;;;21.26;100.00;96515.53;5031908;28;20044;-74
2022/06/26 08:39:16;;;;;;;7.38;4.45;;;;;;;21.33;100.00;96515.91;5030318;28;20040;-74
2022/06/26 08:41:45;;;;;;;8.13;5.45;;;;;;;21.50;100.00;96522.53;5032904;28;20036;-74
2022/06/26 08:44:11;;;;;;;7.65;4.75;;;;;;;21.67;100.00;96507.00;5035222;28;20045;-75
2022/06/26 08:46:39;;;;;;;8.70;4.65;;;;;;;21.88;100.00;96522.75;5031622;28;20041;-74
2022/06/26 08:49:14;;;;;;;10.13;4.63;;;;;;;22.12;100.00;96522.31;5032376;28;20128;-74
2022/06/26 08:51:42;;;;;;;7.13;4.95;;;;;;;22.55;100.00;96524.16;5030711;28;20041;-74
2022/06/26 08:54:09;;;;;;;7.63;3.67;;;;;;;22.70;100.00;96542.75;5033215;28;20102;-75
2022/06/26 08:56:38;;;;;;;9.38;4.22;;;;;;;22.54;100.00;96542.47;5033033;28;20338;-75
2022/06/26 08:59:04;;;;;;;7.93;4.80;;;;;;;22.74;100.00;96535.53;5032461;28;20052;-75
2022/06/26 09:01:30;;;;;;;6.32;4.30;;;;;;;22.94;100.00;96532.13;5026907;28;20077;-75
2022/06/26 09:03:55;;;;;;;5.70;4.47;;;;;;;23.06;100.00;96532.25;5031465;28;20033;-74
2022/06/26 09:06:21;;;;;;;7.97;4.32;;;;;;;23.14;100.00;96529.81;5031576;28;20482;-75
2022/06/26 09:08:49;;;;;;;5.90;4.18;;;;;;;23.39;100.00;96537.09;5031397;28;20035;-75
2022/06/26 09:11:16;;;;;;;6.65;4.40;;;;;;;23.49;100.00;96536.69;5046436;28;20060;-75
2022/06/26 09:13:43;;;;;;;12.23;4.97;;;;;;;23.54;100.00;96544.72;5032577;28;20041;-75
2022/06/26 09:16:09;;;;;;;6.32;4.00;;;;;;;23.58;100.00;96540.22;5028758;28;20049;-72
2022/06/26 09:18:39;;;;;;;6.72;4.20;;;;;;;23.86;100.00;96550.66;5030798;28;20593;-73
2022/06/26 09:21:07;;;;;;;8.10;4.38;;;;;;;23.86;100.00;96556.13;5011359;28;20260;-73
2022/06/26 09:23:34;;;;;;;9.48;4.38;;;;;;;24.12;100.00;96561.41;5026457;28;20442;-73
2022/06/26 09:26:00;;;;;;;7.15;4.28;;;;;;;24.42;100.00;96562.16;5033573;28;20187;-73
2022/06/26 09:28:27;;;;;;;8.18;3.90;;;;;;;24.63;100.00;96559.41;5033371;28;20527;-74
2022/06/26 09:30:57;;;;;;;7.47;4.10;;;;;;;24.76;100.00;96560.25;5032004;28;20044;-73
2022/06/26 09:33:25;;;;;;;6.23;3.80;;;;;;;24.07;100.00;96556.16;5034442;28;20056;-74
2022/06/26 09:35:52;;;;;;;9.18;4.07;;;;;;;23.92;100.00;96560.28;5034230;28;20238;-73
2022/06/26 09:38:26;;;;;;;6.43;3.95;;;;;;;24.17;100.00;96562.00;5035132;28;20040;-73
2022/06/26 09:40:57;;;;;;;6.35;4.07;;;;;;;23.90;100.00;96555.13;5032598;28;20033;-73
2022/06/26 09:43:27;;;;;;;8.65;3.75;;;;;;;23.81;100.00;96564.50;5033066;28;20037;-73
2022/06/26 09:45:54;;;;;;;8.75;3.70;;;;;;;23.57;100.00;96563.16;5033134;28;20076;-74
2022/06/26 09:48:22;;;;;;;6.72;4.10;;;;;;;23.44;100.00;96566.94;5032903;28;20041;-74
2022/06/26 09:50:48;;;;;;;6.32;3.30;;;;;;;23.36;100.00;96567.78;5033290;28;20033;-74
2022/06/26 09:53:14;;;;;;;8.57;3.67;;;;;;;23.33;100.00;96573.88;5031714;28;20037;-74
2022/06/26 09:55:40;;;;;;;4.65;2.63;;;;;;;23.81;100.00;96576.25;5034909;28;20055;-74
2022/06/26 09:58:08;;;;;;;4.50;2.92;;;;;;;23.70;100.00;96571.50;5031761;28;20263;-75
2022/06/26 10:00:35;;;;;;;5.45;3.22;;;;;;;24.36;100.00;96572.50;5032571;28;20592;-74
2022/06/26 10:08:35;;;;;;;5.47;3.88;;;;;;;25.44;100.00;96574.31;5038654;28;20575;-74
2022/06/26 10:11:02;;;;;;;6.35;3.60;;;;;;;25.48;98.53;96570.56;5037111;28;20045;-74
2022/06/26 10:13:30;;;;;;;6.18;3.53;;;;;;;25.94;97.49;96573.19;5036071;28;20456;-74
2022/06/26 10:16:11;;;;;;;5.25;3.25;;;;;;;26.25;92.27;96567.88;5056687;28;20063;-74
2022/06/26 10:19:02;;;;;;;5.68;3.42;;;;;;;26.69;91.24;96576.19;5037793;28;20048;-73
2022/06/26 10:21:28;;;;;;;4.88;2.85;;;;;;;26.96;91.13;96573.78;5037113;28;20496;-74
2022/06/26 10:24:02;;;;;;;5.13;2.88;;;;;;;27.11;88.70;96568.34;5051425;28;20037;-74
2022/06/26 10:26:28;;;;;;;5.63;3.10;;;;;;;26.96;90.48;96562.81;5037348;28;20582;-75
2022/06/26 10:29:08;;;;;;;5.38;2.90;;;;;;;26.68;89.45;96560.88;5039757;28;20387;-74
2022/06/26 10:31:47;;;;;;;5.82;2.75;;;;;;;26.46;91.87;96564.16;5036012;28;20538;-73
2022/06/26 10:34:20;;;;;;;5.45;2.60;;;;;;;26.58;90.65;96561.38;5035978;28;20345;-75
2022/06/26 10:37:02;;;;;;;5.47;2.67;;;;;;;26.35;90.46;96561.88;5038120;28;20044;-73
2022/06/26 10:39:44;;;;;;;4.57;2.42;;;;;;;25.91;96.96;96558.22;5033905;28;20507;-74
2022/06/26 10:45:31;;;;;;;3.72;2.38;;;;;;;25.31;93.85;96567.25;4337582;28;10000720;-73
2022/06/26 10:48:04;;;;;;;5.38;2.35;;;;;;;25.00;97.21;96571.25;5035013;28;20334;-73
2022/06/26 10:50:37;;;;;;;6.22;2.45;;;;;;;24.99;96.13;96570.47;5033956;28;20084;-75
2022/06/26 10:53:14;;;;;;;4.15;2.40;;;;;;;25.23;94.97;96574.41;5037431;28;20049;-75
2022/06/26 10:55:42;;;;;;;4.82;2.30;;;;;;;25.33;94.40;96582.19;5034139;28;20575;-74
2022/06/26 10:58:09;;;;;;;4.88;3.22;;;;;;;25.32;94.80;96583.31;5031062;28;20033;-74
2022/06/26 11:00:34;;;;;;;5.03;2.58;;;;;;;26.51;89.83;96591.34;5036368;28;20103;-74
2022/06/26 11:03:00;;;;;;;5.15;2.50;;;;;;;27.46;82.74;96590.41;5034578;28;20455;-75
2022/06/26 11:05:28;;;;;;;5.78;3.67;;;;;;;28.63;74.56;96591.53;5032118;28;20136;-74
2022/06/26 11:07:53;;;;;;;5.72;2.50;;;;;;;29.22;73.18;96570.28;5033764;28;20348;-74
2022/06/26 11:10:20;;;;;;;3.55;2.13;;;;;;;29.04;72.26;96575.47;5033564;28;20523;-73
2022/06/26 11:12:48;;;;;;;4.25;2.28;;;;;;;29.27;73.97;96576.28;5037584;28;20033;-73
2022/06/26 11:15:24;;;;;;;4.40;1.88;;;;;;;28.63;72.98;96588.00;5034233;28;20047;-75
2022/06/26 11:17:58;;;;;;;3.78;2.22;;;;;;;27.68;76.10;96583.53;5035769;28;20419;-74
2022/06/26 11:23:14;;;;;;;4.05;2.28;;;;;;;26.61;85.74;96593.59;5036997;28;20586;-74
2022/06/26 11:25:41;;;;;;;4.63;2.03;;;;;;;26.27;88.70;96597.69;5031286;28;20087;-74
2022/06/26 11:28:08;;;;;;;5.60;2.13;;;;;;;26.37;87.67;96583.47;5034211;28;20049;-73
2022/06/26 11:30:36;;;;;;;4.45;2.00;;;;;;;26.88;85.46;96586.53;5035467;28;20032;-76
2022/06/26 11:33:04;;;;;;;3.65;2.30;;;;;;;27.66;80.46;96577.56;5037111;28;20037;-74
2022/06/26 11:35:29;;;;;;;4.03;2.10;;;;;;;27.21;81.76;96595.28;5050317;28;20037;-73
2022/06/26 11:37:55;;;;;;;5.28;2.50;;;;;;;26.82;85.83;96594.22;5036098;28;20033;-73
2022/06/26 11:40:22;;;;;;;4.10;2.50;;;;;;;26.66;86.81;96604.34;5035118;28;20530;-73
2022/06/26 11:42:55;;;;;;;5.28;2.42;;;;;;;26.20;87.25;96606.50;5036239;28;20036;-74
2022/06/26 11:45:25;;;;;;;6.22;2.05;;;;;;;25.85;90.18;96605.41;5033674;28;20399;-74
2022/06/26 11:47:52;;;;;;;3.95;2.15;;;;;;;25.73;91.20;96606.19;5036425;28;20055;-75